Time;durP1;ratioP1;P1;durP2;ratioP2;P2;SDS_P1;SDS_P2;PMS_P1;PMS_P2;Temp;Humidity;BMP_temperature;BMP_pressure;BME280_temperature;BME280_humidity;BME280_pressure;Samples;Min_cycle;Max_cycle;Signal;HPM_P1;HPM_P2
2023/10/03 00:02:23;;;;;;;11.25;5.93;;;;;;;21.35;52.33;100963.47;16118245;19;130560;-58
2023/10/03 00:07:47;;;;;;;8.60;4.85;;;;;;;21.34;52.02;100953.44;16121848;19;130602;-59
2023/10/03 00:13:11;;;;;;;9.93;5.43;;;;;;;21.34;52.56;100940.38;16121454;19;130765;-58
2023/10/03 00:18:33;;;;;;;10.77;5.80;;;;;;;21.34;52.29;100928.38;16122490;19;130015;-59
2023/10/03 00:23:55;;;;;;;10.85;5.40;;;;;;;21.33;52.27;100921.13;16120279;19;131131;-57
2023/10/03 00:29:23;;;;;;;9.93;5.32;;;;;;;21.32;52.28;100908.31;16118642;19;130385;-59
2023/10/03 00:34:45;;;;;;;10.00;5.53;;;;;;;21.32;52.24;100902.75;16122148;19;131040;-59
2023/10/03 00:40:27;;;;;;;9.77;5.10;;;;;;;21.32;52.03;100897.19;16123515;19;130316;-58
2023/10/03 00:45:49;;;;;;;9.75;5.07;;;;;;;21.30;52.17;100900.25;16127287;19;131968;-55
2023/10/03 00:51:11;;;;;;;8.80;4.72;;;;;;;21.30;52.43;100894.69;16134373;19;130744;-53
2023/10/03 00:56:34;;;;;;;8.80;5.13;;;;;;;21.30;52.04;100888.28;16127489;19;135129;-57
2023/10/03 01:02:03;;;;;;;10.40;5.68;;;;;;;21.29;52.44;100876.31;16126590;19;130206;-53
2023/10/03 01:07:25;;;;;;;10.13;4.72;;;;;;;21.29;52.37;100867.16;16129994;19;129543;-56
2023/10/03 01:12:48;;;;;;;10.20;5.45;;;;;;;21.28;52.07;100857.13;16126235;19;129861;-53
2023/10/03 01:18:13;;;;;;;7.40;4.68;;;;;;;21.27;52.21;100850.69;16124349;19;130743;-56
2023/10/03 01:23:40;;;;;;;7.63;4.90;;;;;;;21.28;52.10;100851.56;16123420;19;129598;-52
2023/10/03 01:29:02;;;;;;;10.68;5.32;;;;;;;21.28;52.13;100851.56;16123248;19;131002;-55
2023/10/03 01:34:25;;;;;;;11.25;5.20;;;;;;;21.28;52.14;100857.13;16118821;19;129422;-56
2023/10/03 01:39:47;;;;;;;8.63;4.90;;;;;;;21.27;51.87;100842.34;16118460;19;130659;-55
2023/10/03 01:45:10;;;;;;;11.85;5.60;;;;;;;21.28;52.11;100846.00;16119452;19;130998;-54
2023/10/03 01:50:34;;;;;;;8.88;5.13;;;;;;;21.27;51.92;100850.69;16117610;19;129405;-57
2023/10/03 01:55:56;;;;;;;11.50;6.18;;;;;;;21.28;51.88;100846.00;16123739;19;130127;-55
2023/10/03 02:01:18;;;;;;;10.93;6.22;;;;;;;21.26;52.06;100840.66;16121949;19;129506;-53
2023/10/03 02:06:40;;;;;;;10.85;5.65;;;;;;;21.26;51.97;100853.75;16115152;19;129483;-59
2023/10/03 02:12:04;;;;;;;11.63;5.60;;;;;;;21.26;51.61;100851.81;16114017;19;130025;-57
2023/10/03 02:17:28;;;;;;;12.93;6.80;;;;;;;21.25;52.05;100846.50;16113464;19;130610;-65
2023/10/03 02:22:56;;;;;;;12.25;6.15;;;;;;;21.25;51.81;100866.81;16110652;19;131005;-56
2023/10/03 02:28:20;;;;;;;10.98;6.55;;;;;;;21.23;51.86;100855.13;16111776;19;129773;-56
2023/10/03 02:33:44;;;;;;;13.23;7.25;;;;;;;21.24;52.02;100870.69;16109628;19;130722;-56
2023/10/03 02:39:08;;;;;;;12.30;6.73;;;;;;;21.22;51.88;100876.53;16111918;19;130011;-58
2023/10/03 02:44:32;;;;;;;14.88;7.53;;;;;;;21.22;51.75;100857.06;16109022;19;130213;-57
2023/10/03 02:49:54;;;;;;;13.25;7.03;;;;;;;21.21;51.81;100869.28;16104459;19;130573;-59
2023/10/03 02:55:17;;;;;;;13.02;7.28;;;;;;;21.21;51.77;100855.38;16110312;19;131661;-59
2023/10/03 03:00:39;;;;;;;13.13;7.65;;;;;;;21.20;51.75;100862.06;16106159;19;129741;-57
2023/10/03 03:06:09;;;;;;;12.82;7.10;;;;;;;21.20;51.83;100862.06;16108318;19;129863;-56
2023/10/03 03:11:31;;;;;;;13.85;7.32;;;;;;;21.19;51.46;100868.72;16107307;19;130487;-57
2023/10/03 03:16:54;;;;;;;12.68;6.88;;;;;;;21.20;51.67;100878.75;16110647;19;134427;-57
2023/10/03 03:22:16;;;;;;;15.20;8.65;;;;;;;21.20;51.76;100872.34;16109861;19;129525;-58
2023/10/03 03:27:41;;;;;;;14.68;7.78;;;;;;;21.19;51.35;100877.06;16117925;19;129536;-57
2023/10/03 03:33:06;;;;;;;12.90;7.37;;;;;;;21.18;51.83;100869.00;16123093;19;130289;-58
2023/10/03 03:38:31;;;;;;;14.80;7.80;;;;;;;21.18;51.35;100882.91;16119698;19;134142;-58
2023/10/03 03:43:53;;;;;;;13.93;7.93;;;;;;;21.18;51.35;100886.50;16123447;19;131030;-57
2023/10/03 03:49:18;;;;;;;13.75;7.20;;;;;;;21.18;51.54;100886.50;16120677;19;131494;-56
2023/10/03 03:54:44;;;;;;;15.95;8.70;;;;;;;21.18;51.68;100902.38;16116448;19;131975;-56
2023/10/03 04:00:47;;;;;;;18.65;8.73;;;;;;;21.17;51.49;100918.22;16121225;19;130165;-58
2023/10/03 04:06:02;;;;;;;13.52;7.78;;;;;;;21.18;51.64;100921.84;16118431;19;130522;-56
2023/10/03 04:11:24;;;;;;;13.85;7.07;;;;;;;21.17;51.37;100945.22;16116790;19;130339;-57
2023/10/03 04:16:48;;;;;;;16.65;7.70;;;;;;;21.17;51.84;100957.16;16118349;19;129662;-57
2023/10/03 04:22:10;;;;;;;13.77;7.70;;;;;;;21.17;51.72;100950.78;16118514;19;130014;-58
2023/10/03 04:27:32;;;;;;;14.57;7.80;;;;;;;21.15;51.26;100937.13;16116850;19;129859;-57
2023/10/03 04:32:55;;;;;;;12.20;6.68;;;;;;;21.16;51.45;100961.06;16114495;19;130834;-57
2023/10/03 04:38:18;;;;;;;13.65;6.97;;;;;;;21.16;51.80;100972.19;16111635;19;129927;-57
2023/10/03 04:43:40;;;;;;;12.35;6.85;;;;;;;21.16;51.73;100961.06;16114927;19;129664;-55
2023/10/03 04:49:02;;;;;;;14.13;7.18;;;;;;;21.16;51.52;100974.13;16115303;19;130526;-56
2023/10/03 04:54:24;;;;;;;12.70;6.65;;;;;;;21.15;51.64;100981.66;16116624;19;131642;-56
2023/10/03 04:59:47;;;;;;;13.27;6.50;;;;;;;21.15;51.26;100995.56;16125497;19;129630;-56
2023/10/03 05:05:10;;;;;;;11.80;6.65;;;;;;;21.15;51.23;100976.09;16118264;19;129598;-57
2023/10/03 05:10:35;;;;;;;14.18;6.68;;;;;;;21.15;51.22;100984.44;16115801;19;129701;-57
2023/10/03 05:15:57;;;;;;;;;;;;;;;21.11;51.42;100986.03;16111620;19;131965;-55
2023/10/03 05:21:19;;;;;;;14.93;5.53;;;;;;;21.12;51.19;100976.59;16119496;19;129632;-53
2023/10/03 05:26:41;;;;;;;9.15;4.88;;;;;;;21.13;51.02;100988.56;16113569;19;131161;-55
2023/10/03 05:32:04;;;;;;;9.65;4.78;;;;;;;21.14;50.91;100985.53;16118569;19;129814;-52
2023/10/03 05:37:27;;;;;;;9.07;4.35;;;;;;;21.16;50.93;100966.63;16114952;19;129406;-50
2023/10/03 05:42:49;;;;;;;8.07;4.10;;;;;;;21.17;50.76;100984.16;16118290;19;130737;-54
2023/10/03 05:48:11;;;;;;;10.38;4.35;;;;;;;21.18;50.76;100971.94;16112499;19;131330;-54
2023/10/03 05:53:34;;;;;;;9.18;4.75;;;;;;;21.18;51.12;100963.59;16114572;19;135792;-56
2023/10/03 05:58:59;;;;;;;8.40;4.25;;;;;;;21.18;50.93;100989.44;16116242;19;130107;-56
2023/10/03 06:04:22;;;;;;;8.85;3.55;;;;;;;21.18;50.68;101017.25;16113213;19;129481;-55
2023/10/03 06:09:44;;;;;;;9.40;3.80;;;;;;;21.18;50.71;100995.00;16112642;19;131261;-57
2023/10/03 06:15:06;;;;;;;7.43;3.53;;;;;;;21.19;50.56;100998.66;16114245;19;130204;-55
2023/10/03 06:20:30;;;;;;;8.82;3.92;;;;;;;21.19;51.04;101013.38;16114585;19;134285;-55
2023/10/03 06:25:52;;;;;;;8.48;3.83;;;;;;;21.18;50.85;101031.19;16114282;19;130140;-54
2023/10/03 06:31:15;;;;;;;9.43;3.40;;;;;;;21.18;50.84;101047.88;16111402;19;131046;-55
2023/10/03 06:36:38;;;;;;;8.38;3.72;;;;;;;21.17;50.98;101045.34;16111292;19;129640;-56
2023/10/03 06:42:00;;;;;;;7.68;3.70;;;;;;;21.16;50.65;101055.66;16114382;19;128961;-57
2023/10/03 06:47:23;;;;;;;5.90;3.35;;;;;;;21.16;50.84;101041.75;16112279;19;130861;-53
2023/10/03 06:52:47;;;;;;;8.25;3.60;;;;;;;21.16;50.84;101046.47;16110826;19;130385;-55
2023/10/03 06:58:10;;;;;;;8.40;4.00;;;;;;;21.15;51.06;101048.41;16113462;19;130650;-56
2023/10/03 07:03:32;;;;;;;12.73;3.83;;;;;;;21.16;50.62;101043.69;16124356;19;131886;-55
2023/10/03 07:08:55;;;;;;;5.80;3.60;;;;;;;21.15;50.67;101048.41;16121765;19;129784;-58
2023/10/03 07:14:17;;;;;;;9.95;3.67;;;;;;;21.14;51.03;101055.06;16124594;19;130043;-56
2023/10/03 07:19:40;;;;;;;7.40;3.75;;;;;;;21.14;50.79;101063.41;16127362;19;129510;-57
2023/10/03 07:25:06;;;;;;;8.48;3.45;;;;;;;21.14;50.65;101079.25;16130160;19;129655;-56
2023/10/03 07:30:28;;;;;;;6.88;3.47;;;;;;;21.14;50.88;101091.25;16123781;19;129949;-56
2023/10/03 07:35:50;;;;;;;6.75;3.65;;;;;;;21.13;50.90;101095.13;16123910;19;129629;-56
2023/10/03 07:41:13;;;;;;;5.68;3.40;;;;;;;21.14;50.93;101104.28;16125137;19;131972;-54
2023/10/03 07:46:36;;;;;;;7.97;4.03;;;;;;;21.14;50.93;101107.94;16119247;19;131783;-55
2023/10/03 07:52:00;;;;;;;7.10;3.92;;;;;;;21.13;50.74;101145.19;16122424;19;130273;-57
2023/10/03 07:57:25;;;;;;;6.38;2.88;;;;;;;21.15;51.01;101142.16;16120417;19;130161;-52
2023/10/03 08:02:49;;;;;;;5.80;3.78;;;;;;;21.16;51.06;101163.31;16118280;19;129215;-55
2023/10/03 08:08:12;;;;;;;5.53;3.10;;;;;;;21.13;50.92;101161.88;16119307;19;130404;-55
2023/10/03 08:13:38;;;;;;;7.40;3.70;;;;;;;21.15;51.24;101176.38;16120950;19;134393;-55
2023/10/03 08:19:02;;;;;;;5.55;2.75;;;;;;;21.14;50.79;101196.97;16117124;19;129644;-55
2023/10/03 08:24:25;;;;;;;5.90;2.92;;;;;;;21.15;50.98;101217.25;16117519;19;129828;-51
2023/10/03 08:29:51;;;;;;;5.00;2.85;;;;;;;21.15;51.29;101220.91;16118480;19;131452;-53
2023/10/03 08:35:13;;;;;;;5.80;2.65;;;;;;;21.15;50.95;101245.09;16115803;19;131565;-57
2023/10/03 08:40:40;;;;;;;5.82;2.65;;;;;;;21.17;51.27;101256.81;16121723;19;129749;-55
2023/10/03 08:46:03;;;;;;;4.50;2.25;;;;;;;21.15;50.87;101270.97;16119055;19;133357;-53
2023/10/03 08:51:25;;;;;;;3.38;2.38;;;;;;;21.16;51.08;101289.34;16118210;19;129992;-53
2023/10/03 08:56:47;;;;;;;3.63;2.35;;;;;;;21.17;51.23;101304.09;16116289;19;129900;-56
2023/10/03 09:02:14;;;;;;;5.43;2.33;;;;;;;21.19;50.73;101308.31;16116190;19;133522;-50
2023/10/03 09:07:43;;;;;;;4.90;2.35;;;;;;;21.20;50.82;101318.34;16108580;19;129730;-53
2023/10/03 09:13:06;;;;;;;3.38;2.03;;;;;;;21.19;50.88;101333.34;16114704;19;129745;-57
2023/10/03 09:18:31;;;;;;;4.25;1.83;;;;;;;21.19;50.69;101341.69;16115671;19;129760;-55
2023/10/03 09:24:10;;;;;;;3.88;1.95;;;;;;;21.18;50.79;101353.91;16116652;19;131130;-56
2023/10/03 09:29:32;;;;;;;2.92;1.70;;;;;;;21.19;51.17;101366.72;16112797;19;130312;-55
2023/10/03 09:35:00;;;;;;;5.25;2.05;;;;;;;21.17;50.99;101371.69;16108894;19;129513;-50
2023/10/03 09:40:22;;;;;;;2.75;1.70;;;;;;;21.18;50.85;101367.00;16116172;19;129726;-54
2023/10/03 09:45:46;;;;;;;2.53;1.80;;;;;;;21.18;51.13;101376.19;16113698;19;130829;-55
2023/10/03 09:51:12;;;;;;;6.10;1.85;;;;;;;21.19;50.77;101400.13;16115338;19;130036;-51
2023/10/03 09:56:40;;;;;;;3.80;1.85;;;;;;;21.19;50.75;101414.03;16108527;19;130249;-53
2023/10/03 10:02:03;;;;;;;3.22;1.70;;;;;;;21.20;50.90;101440.75;16110411;19;130203;-52
2023/10/03 10:07:34;;;;;;;2.30;1.65;;;;;;;21.24;50.60;101456.97;16112431;19;130978;-54
2023/10/03 10:13:20;;;;;;;2.90;1.60;;;;;;;21.27;51.08;101473.16;16109295;19;130623;-50
2023/10/03 10:18:43;;;;;;;6.43;2.00;;;;;;;21.25;50.91;101489.25;16113382;19;131485;-56
2023/10/03 10:24:15;;;;;;;3.55;1.85;;;;;;;21.28;51.11;101497.13;16111063;19;130180;-54
2023/10/03 10:29:57;;;;;;;6.60;1.80;;;;;;;21.33;50.97;101502.75;16109204;19;130334;-53
2023/10/03 10:35:55;;;;;;;4.45;2.00;;;;;;;21.36;50.96;101499.47;16122688;19;130649;-54
2023/10/03 10:46:49;;;;;;;2.17;1.20;;;;;;;21.46;50.64;101494.09;16122211;19;129740;-56
2023/10/03 10:52:13;;;;;;;3.22;1.45;;;;;;;21.50;50.89;101512.03;16127375;19;129390;-54
2023/10/03 10:57:35;;;;;;;3.17;1.45;;;;;;;21.55;51.17;101521.53;16121495;19;130113;-57
2023/10/03 11:02:58;;;;;;;6.35;1.70;;;;;;;21.56;50.70;101521.31;16124916;19;130843;-51
2023/10/03 11:08:21;;;;;;;3.63;1.33;;;;;;;21.58;50.60;101526.59;16125761;19;130669;-58
2023/10/03 11:13:46;;;;;;;2.95;1.40;;;;;;;21.59;50.91;101520.81;16123298;19;130115;-53
2023/10/03 11:19:08;;;;;;;4.10;1.30;;;;;;;21.59;50.97;101540.28;16122597;19;130093;-54
2023/10/03 11:24:37;;;;;;;3.53;1.00;;;;;;;21.61;50.84;101567.88;16121964;19;131322;-53
2023/10/03 11:30:13;;;;;;;1.33;1.05;;;;;;;21.65;50.79;101577.44;16123231;19;129505;-52
2023/10/03 11:35:35;;;;;;;3.45;1.10;;;;;;;21.65;50.56;101583.81;16117979;19;130281;-57
2023/10/03 11:40:57;;;;;;;3.03;1.02;;;;;;;21.66;50.67;101581.91;16122482;19;130831;-55
2023/10/03 11:46:21;;;;;;;1.85;1.08;;;;;;;21.66;50.64;101601.41;16121138;19;129411;-57
2023/10/03 11:51:43;;;;;;;1.55;1.00;;;;;;;21.68;50.55;101604.75;16117628;19;131418;-55
2023/10/03 11:57:06;;;;;;;1.73;0.90;;;;;;;21.70;50.28;101613.69;16120974;19;130410;-50
2023/10/03 12:02:28;;;;;;;1.48;0.73;;;;;;;21.73;50.56;101615.13;16122674;19;133048;-56
2023/10/03 12:07:51;;;;;;;2.75;1.00;;;;;;;21.74;50.37;101622.38;16118386;19;131203;-52
2023/10/03 12:13:15;;;;;;;3.25;1.15;;;;;;;21.73;50.47;101637.41;16120772;19;130472;-56
2023/10/03 12:18:37;;;;;;;2.77;0.80;;;;;;;21.70;50.56;101649.91;16121112;19;130554;-56
2023/10/03 12:24:01;;;;;;;2.40;0.82;;;;;;;21.69;50.09;101656.56;16122174;19;129381;-55
2023/10/03 12:29:31;;;;;;;4.10;0.85;;;;;;;21.69;50.00;101659.34;16117761;19;129590;-57
2023/10/03 12:34:53;;;;;;;1.48;0.70;;;;;;;21.69;49.99;101670.50;16123079;19;131410;-57
2023/10/03 12:40:17;;;;;;;3.20;0.90;;;;;;;21.70;50.15;101688.88;16121917;19;130614;-56
2023/10/03 12:45:39;;;;;;;1.88;1.00;;;;;;;21.69;50.29;101686.38;16116871;19;130414;-55
2023/10/03 12:51:01;;;;;;;2.08;0.88;;;;;;;21.67;50.30;101706.94;16119279;19;130106;-55
2023/10/03 12:56:23;;;;;;;1.48;0.75;;;;;;;21.66;50.15;101715.56;16113130;19;129819;-53
2023/10/03 13:01:48;;;;;;;2.70;0.70;;;;;;;21.66;50.29;101726.69;16115096;19;129654;-53
2023/10/03 13:07:11;;;;;;;2.70;0.90;;;;;;;21.66;50.14;101726.69;16120740;19;131182;-52
2023/10/03 13:12:33;;;;;;;1.70;0.70;;;;;;;21.65;50.05;101747.28;16117932;19;132112;-52
2023/10/03 13:17:57;;;;;;;1.10;0.65;;;;;;;21.64;49.95;101752.00;16119687;19;129832;-51
2023/10/03 13:23:19;;;;;;;2.42;0.88;;;;;;;21.63;49.81;101764.22;16116458;19;131731;-56
2023/10/03 13:28:42;;;;;;;2.78;0.93;;;;;;;21.65;50.00;101777.91;16116258;19;131522;-52
2023/10/03 13:34:05;;;;;;;4.80;0.88;;;;;;;21.65;49.89;101802.97;16116509;19;131596;-53
2023/10/03 13:39:26;;;;;;;1.95;0.90;;;;;;;21.66;49.76;101801.88;16115697;19;129850;-54
2023/10/03 13:44:53;;;;;;;3.58;1.00;;;;;;;21.66;49.63;101824.16;16118886;19;134627;-54
2023/10/03 13:50:17;;;;;;;7.40;1.02;;;;;;;21.66;49.52;101858.41;16111227;19;131206;-54
2023/10/03 13:55:39;;;;;;;2.90;1.17;;;;;;;21.65;49.81;101869.81;16114426;19;129622;-54
2023/10/03 14:01:03;;;;;;;5.85;1.30;;;;;;;21.65;49.39;101875.38;16115480;19;130200;-50
2023/10/03 14:06:29;;;;;;;2.67;1.25;;;;;;;21.65;49.60;101887.34;16113465;19;130667;-54
2023/10/03 14:12:05;;;;;;;2.47;1.02;;;;;;;21.65;49.42;101887.34;16115459;19;131134;-54
2023/10/03 14:17:27;;;;;;;7.07;1.33;;;;;;;21.66;49.50;101896.56;16110307;19;130281;-52
2023/10/03 14:22:51;;;;;;;2.92;1.17;;;;;;;21.66;49.26;101900.19;16115907;19;129512;-56
2023/10/03 14:28:14;;;;;;;5.65;1.40;;;;;;;21.67;49.40;101912.16;16107043;19;131653;-53
2023/10/03 14:33:37;;;;;;;3.55;1.00;;;;;;;21.66;49.21;101921.63;16107416;19;129765;-50
2023/10/03 14:38:59;;;;;;;2.65;1.08;;;;;;;21.65;49.32;101939.44;16108768;19;130618;-53
2023/10/03 14:44:21;;;;;;;3.30;1.50;;;;;;;21.62;48.98;101951.88;16109540;19;129563;-51
2023/10/03 14:49:44;;;;;;;3.58;1.40;;;;;;;21.61;48.66;101957.69;16105958;19;130669;-56
2023/10/03 14:55:07;;;;;;;5.88;1.67;;;;;;;21.59;49.12;101962.66;16108767;19;130251;-52
2023/10/03 15:00:29;;;;;;;5.25;1.13;;;;;;;21.56;48.83;101965.91;16109113;19;130073;-50
2023/10/03 15:05:51;;;;;;;6.00;1.85;;;;;;;21.54;48.32;101970.91;16111377;19;130900;-54
2023/10/03 15:11:14;;;;;;;3.28;1.40;;;;;;;21.52;48.54;101983.13;16106857;19;130090;-52
2023/10/03 15:16:38;;;;;;;2.53;1.45;;;;;;;21.50;48.38;101988.09;16105312;19;129666;-52
2023/10/03 15:22:00;;;;;;;4.43;1.30;;;;;;;21.49;47.97;101989.16;16124337;19;130863;-49
2023/10/03 15:27:22;;;;;;;7.78;2.30;;;;;;;21.47;47.99;102002.44;16121583;19;131094;-48
2023/10/03 15:32:46;;;;;;;6.53;1.75;;;;;;;21.47;47.73;101996.88;16125084;19;130110;-48
2023/10/03 15:38:08;;;;;;;11.88;1.95;;;;;;;21.45;47.65;102003.78;16122672;19;130144;-53
2023/10/03 15:43:30;;;;;;;7.95;2.00;;;;;;;21.44;47.30;102013.22;16123551;19;130314;-55
2023/10/03 15:48:52;;;;;;;4.90;1.63;;;;;;;21.42;47.29;102016.22;16117403;19;130138;-52
2023/10/03 15:54:15;;;;;;;6.38;1.80;;;;;;;21.40;47.43;102028.69;16103837;19;129432;-58
2023/10/03 15:59:38;;;;;;;6.00;1.83;;;;;;;21.37;47.55;102042.00;16120122;19;130260;-53
2023/10/03 16:05:00;;;;;;;7.28;2.00;;;;;;;21.35;47.28;102054.47;16124950;19;131596;-55
2023/10/03 16:10:23;;;;;;;7.97;2.17;;;;;;;21.34;47.69;102077.81;16127578;19;130911;-58
2023/10/03 16:15:47;;;;;;;6.80;1.63;;;;;;;21.32;47.45;102088.34;16119453;19;129369;-55
2023/10/03 16:21:09;;;;;;;4.68;1.85;;;;;;;21.30;47.54;102096.06;16118580;19;129899;-54
2023/10/03 16:26:33;;;;;;;4.05;1.70;;;;;;;21.28;47.54;102104.66;16119548;19;130506;-53
2023/10/03 16:31:56;;;;;;;5.78;2.00;;;;;;;21.28;47.80;102120.53;16123476;19;130709;-56
2023/10/03 16:37:19;;;;;;;5.13;1.80;;;;;;;21.27;47.65;102135.53;16120407;19;129468;-54
2023/10/03 16:42:44;;;;;;;8.77;2.30;;;;;;;21.25;47.57;102138.53;16114937;19;131634;-53
2023/10/03 16:48:07;;;;;;;7.07;1.75;;;;;;;21.23;48.02;102151.84;16120597;19;130242;-55
2023/10/03 16:53:30;;;;;;;4.57;1.88;;;;;;;21.21;47.72;102143.72;16111812;19;129934;-55
2023/10/03 16:58:52;;;;;;;6.68;1.90;;;;;;;21.20;48.11;102147.56;16113825;19;129708;-56
2023/10/03 17:04:16;;;;;;;6.85;2.13;;;;;;;21.20;48.06;102149.53;16113815;19;130024;-54
2023/10/03 17:09:41;;;;;;;3.70;1.75;;;;;;;21.18;48.17;102160.88;16112319;19;130017;-56
2023/10/03 17:15:04;;;;;;;5.17;2.00;;;;;;;21.17;48.37;102159.16;16110286;19;130820;-56
2023/10/03 17:20:26;;;;;;;5.28;1.80;;;;;;;21.17;48.33;102164.72;16107707;19;130054;-56
2023/10/03 17:25:48;;;;;;;7.03;1.50;;;;;;;21.16;48.39;102164.97;16113314;19;132490;-54
2023/10/03 17:31:13;;;;;;;5.25;1.70;;;;;;;21.15;48.59;102186.41;16109733;19;131151;-56
2023/10/03 17:36:36;;;;;;;6.03;1.95;;;;;;;21.13;48.37;102194.13;16111263;19;130347;-53
2023/10/03 17:41:58;;;;;;;5.45;1.98;;;;;;;21.12;48.11;102211.91;16113620;19;131064;-60
2023/10/03 17:47:20;;;;;;;8.18;1.88;;;;;;;21.12;48.38;102205.47;16114754;19;130004;-52
2023/10/03 17:52:43;;;;;;;11.35;2.17;;;;;;;21.13;47.87;102209.97;16108339;19;129414;-54
2023/10/03 17:58:05;;;;;;;10.82;2.25;;;;;;;21.14;48.16;102226.44;16113922;19;131835;-55
2023/10/03 18:03:29;;;;;;;6.43;1.80;;;;;;;21.16;47.65;102235.41;16114019;19;129806;-55
2023/10/03 18:08:53;;;;;;;7.85;1.77;;;;;;;21.17;48.00;102237.09;16113936;19;129482;-53
2023/10/03 18:14:15;;;;;;;10.05;1.80;;;;;;;21.19;47.69;102246.06;16113108;19;129232;-54
2023/10/03 18:19:37;;;;;;;3.75;1.85;;;;;;;21.20;47.95;102252.50;16113466;19;130491;-52
2023/10/03 18:24:59;;;;;;;10.40;1.98;;;;;;;21.20;47.69;102258.91;16109804;19;129724;-54
2023/10/03 18:30:22;;;;;;;9.20;2.10;;;;;;;21.21;47.84;102260.59;16110019;19;130633;-56
2023/10/03 18:35:44;;;;;;;4.05;1.63;;;;;;;21.21;47.77;102271.72;16111928;19;129643;-54
2023/10/03 18:41:06;;;;;;;7.18;1.80;;;;;;;21.22;47.69;102270.66;16110557;19;129373;-54
2023/10/03 18:46:28;;;;;;;5.95;1.70;;;;;;;21.22;47.70;102287.34;16111999;19;130412;-55
2023/10/03 18:51:50;;;;;;;6.82;1.60;;;;;;;21.22;47.72;102294.88;16108378;19;130575;-57
2023/10/03 18:57:13;;;;;;;9.07;2.03;;;;;;;21.21;48.01;102304.28;16128470;19;130525;-57
2023/10/03 19:02:35;;;;;;;39.10;3.78;;;;;;;21.21;47.93;102315.44;16125895;19;129706;-55
2023/10/03 19:07:57;;;;;;;26.83;2.80;;;;;;;21.24;48.34;102325.25;16117214;19;130259;-55
2023/10/03 19:13:19;;;;;;;18.55;2.35;;;;;;;21.24;48.64;102328.03;16121967;19;130640;-56
2023/10/03 19:18:41;;;;;;;15.77;2.28;;;;;;;21.24;48.37;102325.25;16122399;19;130585;-55
2023/10/03 19:24:03;;;;;;;13.88;1.90;;;;;;;21.26;48.41;102334.22;16124687;19;129514;-54
2023/10/03 19:29:25;;;;;;;10.40;1.50;;;;;;;21.27;48.58;102344.28;16121899;19;130068;-52
2023/10/03 19:34:48;;;;;;;12.30;1.88;;;;;;;21.28;48.66;102351.53;16121432;19;129851;-55
2023/10/03 19:40:11;;;;;;;10.15;2.05;;;;;;;21.28;48.78;102354.31;16124653;19;129936;-52
2023/10/03 19:45:37;;;;;;;4.95;2.08;;;;;;;21.29;49.05;102362.44;16122766;19;130362;-56
2023/10/03 19:51:07;;;;;;;14.27;2.15;;;;;;;21.30;48.88;102363.28;16122036;19;130628;-55
2023/10/03 19:56:31;;;;;;;9.23;2.13;;;;;;;21.31;49.04;102373.31;16122127;19;130913;-55
2023/10/03 20:01:53;;;;;;;10.15;1.83;;;;;;;21.31;49.13;102362.19;16127153;19;129724;-56
2023/10/03 20:07:17;;;;;;;8.88;1.67;;;;;;;21.31;48.83;102373.31;16126497;19;130379;-53
2023/10/03 20:12:39;;;;;;;14.85;2.00;;;;;;;21.31;48.65;102368.63;16126613;19;129507;-54
2023/10/03 20:18:01;;;;;;;11.65;2.08;;;;;;;21.32;48.73;102380.59;16125854;19;130646;-50
2023/10/03 20:23:26;;;;;;;8.10;1.98;;;;;;;21.31;48.65;102384.47;16126944;19;128921;-56
2023/10/03 20:28:48;;;;;;;9.15;1.70;;;;;;;21.28;48.81;102382.16;16128526;19;130705;-51
2023/10/03 20:34:11;;;;;;;8.63;1.90;;;;;;;21.27;48.33;102386.03;16117582;19;130559;-56
2023/10/03 20:39:37;;;;;;;19.10;1.92;;;;;;;21.27;48.76;102397.16;16117786;19;130858;-55
2023/10/03 20:44:59;;;;;;;11.18;1.90;;;;;;;21.25;48.37;102393.75;16120812;19;129663;-55
2023/10/03 20:50:21;;;;;;;9.73;2.05;;;;;;;21.22;48.43;102407.03;16112780;19;130526;-57
2023/10/03 20:55:43;;;;;;;6.20;1.60;;;;;;;21.21;48.64;102412.84;16119151;19;129988;-53
2023/10/03 21:01:05;;;;;;;9.77;1.90;;;;;;;21.20;48.37;102423.09;16118691;19;130000;-53
2023/10/03 21:06:30;;;;;;;8.38;1.83;;;;;;;21.19;48.42;102424.19;16118878;19;129411;-54
2023/10/03 21:11:52;;;;;;;7.45;1.75;;;;;;;21.19;48.78;102431.69;16120180;19;129565;-51
2023/10/03 21:17:14;;;;;;;5.80;1.73;;;;;;;21.17;48.58;102440.25;16115134;19;133285;-54
2023/10/03 21:22:36;;;;;;;6.18;1.60;;;;;;;21.16;48.78;102446.91;16115751;19;130916;-56
2023/10/03 21:27:58;;;;;;;9.32;1.80;;;;;;;21.14;48.63;102443.50;16113514;19;130356;-55
2023/10/03 21:33:20;;;;;;;2.50;1.10;;;;;;;21.11;48.86;102438.38;16112895;19;130768;-56
2023/10/03 21:38:44;;;;;;;8.63;1.70;;;;;;;21.11;48.46;102424.47;16111995;19;129601;-57
2023/10/03 21:44:06;;;;;;;4.85;1.40;;;;;;;21.09;48.45;102426.63;16113798;19;131848;-57
2023/10/03 21:49:28;;;;;;;3.83;1.35;;;;;;;21.08;48.67;102438.84;16112286;19;130227;-57
2023/10/03 21:54:54;;;;;;;3.10;1.70;;;;;;;21.08;48.59;102449.97;16113951;19;129463;-57
2023/10/03 22:00:27;;;;;;;3.13;1.40;;;;;;;21.05;48.22;102440.16;16110110;19;131234;-57
2023/10/03 22:05:49;;;;;;;4.38;1.60;;;;;;;21.04;48.69;102443.16;16116260;19;134164;-57
2023/10/03 22:11:12;;;;;;;6.53;1.42;;;;;;;21.03;48.63;102447.88;16112752;19;131676;-57
2023/10/03 22:16:34;;;;;;;4.47;1.50;;;;;;;21.01;48.76;102446.41;16112285;19;133927;-54
2023/10/03 22:21:56;;;;;;;5.90;1.40;;;;;;;21.00;48.11;102453.88;16108992;19;129875;-58
2023/10/03 22:27:18;;;;;;;2.75;1.30;;;;;;;21.00;48.43;102450.25;16112247;19;129659;-55
2023/10/03 22:32:40;;;;;;;3.90;1.10;;;;;;;20.99;48.47;102454.09;16108973;19;129718;-57
2023/10/03 22:38:06;;;;;;;2.97;1.00;;;;;;;20.97;48.50;102450.69;16110584;19;129531;-56
2023/10/03 22:43:29;;;;;;;1.98;1.17;;;;;;;20.96;48.48;102449.84;16112219;19;130218;-57
2023/10/03 22:48:51;;;;;;;6.63;1.58;;;;;;;20.95;48.18;102450.06;16116241;19;130347;-58
2023/10/03 22:54:13;;;;;;;3.42;1.58;;;;;;;20.94;48.18;102457.56;16110996;19;130224;-55
2023/10/03 22:59:35;;;;;;;3.95;1.30;;;;;;;20.94;48.23;102448.34;16115217;19;130333;-56
2023/10/03 23:04:57;;;;;;;2.58;1.40;;;;;;;20.91;48.45;102458.00;16115084;19;130206;-56
2023/10/03 23:10:22;;;;;;;5.63;1.33;;;;;;;20.89;48.39;102461.03;16110818;19;129817;-55
2023/10/03 23:15:44;;;;;;;4.93;1.37;;;;;;;20.88;48.18;102470.44;16109441;19;130161;-56
2023/10/03 23:21:06;;;;;;;4.55;1.67;;;;;;;20.88;48.41;102476.00;16114405;19;129571;-58
2023/10/03 23:26:31;;;;;;;4.38;1.10;;;;;;;20.86;48.39;102475.38;16144486;19;133399;-56
2023/10/03 23:31:53;;;;;;;2.47;1.08;;;;;;;20.85;48.59;102478.41;16120051;19;129690;-55
2023/10/03 23:37:16;;;;;;;2.15;0.93;;;;;;;20.86;48.48;102485.66;16118425;19;129979;-55
2023/10/03 23:42:38;;;;;;;2.20;0.95;;;;;;;20.85;48.42;102484.78;16134128;19;132035;-56
2023/10/03 23:48:02;;;;;;;2.08;1.00;;;;;;;20.84;48.39;102494.22;16130205;19;131212;-55
2023/10/03 23:53:24;;;;;;;2.38;1.00;;;;;;;20.83;48.40;102498.06;16130170;19;130235;-60
2023/10/03 23:58:49;;;;;;;2.45;0.93;;;;;;;20.82;48.22;102499.16;16127722;19;129914;-55
